Terminal Aerodrome Forecast
Issued by NWS

Home | Current Version | Previous Version | Text Only | Print | Product List | Glossary Off
Versions: 1 2 3 4 5 6 7 8 9 10 11 12 13 14 15 16 17

000
FTUS43 KPAH 221851 AAA
TAFOWB
TAF AMD
KOWB 221851Z 2219/2318 09007KT P6SM -RA SCT030 OVC110
     FM222000 08007KT P6SM SCT030 BKN120
     FM230000 01011KT P6SM SCT030 OVC060
     FM230500 35015G23KT P6SM VCSH BKN025=

USA.gov is the U.S. government's official web portal to all federal, state and local government web resources and services.